Togiak, AK

2:40 AM AKDT on July 12, 2014 (GMT -0800)
Togiak (PATG) Elev 20 ft | 59.05 °N, 160.40 °W | Change Station

Current weather conditions updated 4 minutes ago

Overcast
Overcast
54 °F
Feels Like 54 °F
N
15
Wind Variable Wind from ESE

Today is forecast to be nearly the same temperature as yesterday. Showers ending by midday.

Today
High -- | Low -- °F
--% Chance of Precip.
Yesterday
High -- | Low -- °F
Precip. -- in
5:48 AM 11:44 PM
Full, 100% visible
Pressure 29.60 in
Visibility 2.5 miles
Clouds Scattered Clouds 800 ft
Mostly Cloudy 1200 ft
Overcast 2200 ft
Dew Point 54 °F
Humidity 100%
Rainfall 0.01 in
Snow Depth Not available.
UV 0 out of 12
Pollen Not available.
Air Quality Not available.
Flu Activity Sporadic
METAR PATG 121036Z AUTO 12013KT 2 1/2SM SCT008 BKN012 OVC022 12/12 A2960 RMK AO1 P0001

More Conditions Fewer Conditions

Pressure 29.60 in
Visibility 2.5 miles
Clouds Scattered Clouds 800 ft
Mostly Cloudy 1200 ft
Overcast 2200 ft
Dew Point 54 °F
Humidity 100%
Rainfall 0.01 in
Snow Depth Not available.
UV 0 out of 12
Pollen Not available.
Air Quality Not available.
Flu Activity Sporadic
METAR PATG 121036Z AUTO 12013KT 2 1/2SM SCT008 BKN012 OVC022 12/12 A2960 RMK AO1 P0001

More Conditions Fewer Conditions

10-Day Weather Forecast

Almanac

Astronomy

Jul. 12, 2014 Rise Set
Actual Time 5:48 AM AKDT 11:44 PM AKDT
Civil Twilight 4:35 AM AKDT 12:56 AM AKDT
Nautical Twilight Sun does not rise Sun does not rise
Astronomical Twilight Sun does not rise Sun does not rise
Moon 11:17 PM AKDT 6:51 AM AKDT
Length of Visible Light 20h 21m
Length of Day
17h 55m
Tomorrow will be 3m 11s shorter.
Full, 100% of the Moon is Illuminated
Today
Full
Jul 12
Full
Jul 18
Last Quarter
Jul 26
New
Aug 3
First Quarter

Today's Extremes

State Highs State Lows

Community

WunderPhotos

Upload Photos

1,732,772 photos uploaded!

Nearby

Snow Depth

Station Depth Elevation
Port Graham 0 in 300 ft
Mcneil Canyon 1 in 1320 ft
MF Bradley River 23 in 2300 ft
Nuka Glacier 3 in 1250 ft
Cooper Lake 5 in 1200 ft

Earthquake Activity

City Distance Mag. Time & Date
No recent earthquake activity has been reported nearby.
Minimum magnitude displayed is 2.5.

Coastal Water Temperatures

Place Temperature
No Stations Reporting

Nearby Weather Stations

There are no personal weather stations in this area.